Latest Coastal Weather Observations for Dum In Mirrie

IDD60701

Issued at 2:45 am CST Sunday 24 August 2014 (issued every 10 minutes, with the page automatically refreshed every 10 minutes)

About coastal observations | Map of coastal stations | Coastal observations for NT | Marine services | Other Formats
Station Details ID: 014277 Name: DUM IN MIRRIE AIRSTRIP Lat: -12.63 Lon: 130.37 Height: 3.5 m
Data from the previous 72 hours. | See also: Recent months at Dum In Mirrie
Date/Time
CST
Temp

°C
Wind Pressure Rain
since 9am
mm
Weather Cloud Vis
km
Sea
Height
m
Swell
Dir
 
Speed
knots
Gust
knots
hPa Trend Height
m
Period
s
Dir
24/02:30am 19.2 SW 1 3 1012.9 - 0.0 - - - - - - -
24/02:00am 18.7 CALM 0 2 1013.1 - 0.0 - - - - - - -
24/01:30am 19.1 WSW 1 2 1013.3 - 0.0 - - - - - - -
24/01:00am 18.9 SW 1 2 1013.7 - 0.0 - - - - - - -
24/12:30am 19.2 SSW 2 4 1014.0 - 0.0 - - - - - - -
24/12:00am 18.0 S 1 2 1014.3 - 0.0 - - - - - - -
 
Date/Time
CST
Temp

°C
Wind Pressure Rain
since 9am
mm
Weather Cloud Vis
km
Sea
Height
m
Swell
Dir
 
Speed
knots
Gust
knots
hPa Trend Height
m
Period
s
Dir
23/11:30pm 18.4 SSW 1 3 1014.6 - 0.0 - - - - - - -
23/11:00pm 19.1 SSW 2 3 1014.7 - 0.0 - - - - - - -
23/10:30pm 18.4 S 1 2 1014.8 - 0.0 - - - - - - -
23/10:00pm 18.4 S 1 3 1014.8 - 0.0 - - - - - - -
23/09:30pm 19.4 WSW 1 2 1014.5 - 0.0 - - - - - - -
23/09:00pm 21.3 W 2 3 1014.1 - 0.0 - - - - - - -
23/08:30pm 22.6 W 2 4 1014.0 - 0.0 - - - - - - -
23/08:00pm 23.1 W 2 4 1013.7 - 0.0 - - - - - - -
23/07:30pm 23.5 W 3 5 1013.4 - 0.0 - - - - - - -
23/07:00pm 24.0 W 4 7 1012.9 - 0.0 - - - - - - -
23/06:30pm 24.5 W 4 8 1012.5 - 0.0 - - - - - - -
23/06:00pm 25.7 W 4 7 1012.3 - 0.0 - - - - - - -
23/05:30pm 26.4 W 5 9 1012.1 - 0.0 - - - - - - -
23/05:00pm 26.6 W 6 9 1012.0 - 0.0 - - - - - - -
23/04:30pm 26.9 NW 5 8 1011.9 - 0.0 - - - - - - -
23/04:00pm 26.9 WNW 6 9 1012.2 - 0.0 - - - - - - -
23/03:30pm 26.9 NW 6 10 1012.5 - 0.0 - - - - - - -
23/03:00pm 27.0 NW 5 9 1012.7 - 0.0 - - - - - - -
23/02:30pm 27.3 N 8 12 1013.1 - 0.0 - - - - - - -
23/02:00pm 27.3 N 8 14 1013.6 - 0.0 - - - - - - -
23/01:30pm 26.9 N 7 12 1014.1 - 0.0 - - - - - - -
23/01:00pm 28.2 N 7 12 1014.7 - 0.0 - - - - - - -
23/12:30pm 28.4 E 5 9 1015.2 - 0.0 - - - - - - -
23/12:00pm 27.5 ENE 5 8 1015.7 - 0.0 - - - - - - -
23/11:30am 26.8 NE 7 10 1016.2 - 0.0 - - - - - - -
23/11:00am 26.4 NE 7 12 1016.5 - 0.0 - - - - - - -
23/10:30am 25.3 ENE 7 12 1016.6 - 0.0 - - - - - - -
23/10:00am 25.0 E 5 7 1016.7 - 0.0 - - - - - - -
23/09:30am 22.8 ESE 5 7 1016.5 - 0.0 - - - - - - -
23/09:00am 21.1 E 7 10 1016.5 - 0.0 - - - - - - -
23/08:30am 19.5 ESE 6 9 1016.3 - 0.0 - - - - - - -
23/08:00am 18.3 ESE 5 8 1015.9 - 0.0 - - - - - - -
23/07:30am 14.6 SE 2 4 1015.4 - 0.0 - - - - - - -
23/07:00am 15.9 SE 2 5 1015.1 - 0.0 - - - - - - -
23/06:30am 15.8 SSE 3 6 1014.6 - 0.0 - - - - - - -
23/06:00am 15.8 S 2 5 1014.3 - 0.0 - - - - - - -
23/05:30am 15.9 S 3 4 1013.9 - 0.0 - - - - - - -
23/05:00am 16.1 S 3 5 1013.6 - 0.0 - - - - - - -
23/04:30am 16.4 SSE 2 4 1013.6 - 0.0 - - - - - - -
23/04:00am 17.4 S 3 4 1013.7 - 0.0 - - - - - - -
23/03:30am 15.6 SSE 2 3 1013.7 - 0.0 - - - - - - -
23/03:00am 15.5 S 1 3 1013.8 - 0.0 - - - - - - -
23/02:30am 15.5 S 1 2 1014.0 - 0.0 - - - - - - -
23/02:00am 15.9 S 1 2 1014.2 - 0.0 - - - - - - -
23/01:30am 16.0 S 2 3 1014.4 - 0.0 - - - - - - -
23/01:00am 16.6 S 1 2 1014.5 - 0.0 - - - - - - -
23/12:30am 17.3 CALM 0 0 1014.6 - 0.0 - - - - - - -
23/12:00am 18.6 SW 2 4 1014.8 - 0.0 - - - - - - -
 
Date/Time
CST
Temp

°C
Wind Pressure Rain
since 9am
mm
Weather Cloud Vis
km
Sea
Height
m
Swell
Dir
 
Speed
knots
Gust
knots
hPa Trend Height
m
Period
s
Dir
22/11:30pm 18.8 WSW 1 3 1014.8 - 0.0 - - - - - - -
22/11:00pm 17.1 W 2 3 1014.9 - 0.0 - - - - - - -
22/10:30pm 18.9 W 1 3 1014.7 - 0.0 - - - - - - -
22/10:00pm 17.7 WSW 1 3 1014.5 - 0.0 - - - - - - -
22/09:30pm 16.7 W 1 3 1014.3 - 0.0 - - - - - - -
22/09:00pm 16.9 CALM 0 2 1014.1 - 0.0 - - - - - - -
22/08:30pm 17.5 WNW 2 4 1013.8 - 0.0 - - - - - - -
22/08:00pm 18.5 NW 2 4 1013.4 - 0.0 - - - - - - -
22/07:30pm 20.0 NW 2 3 1013.0 - 0.0 - - - - - - -
22/07:00pm 23.1 WNW 3 4 1012.7 - 0.0 - - - - - - -
22/06:30pm 24.4 WNW 3 6 1012.3 - 0.0 - - - - - - -
22/06:00pm 25.7 W 3 7 1012.1 - 0.0 - - - - - - -
22/05:30pm 26.3 W 3 6 1011.8 - 0.0 - - - - - - -
22/05:00pm 26.6 NW 5 8 1011.7 - 0.0 - - - - - - -
22/04:30pm 27.3 NW 6 10 1011.6 - 0.0 - - - - - - -
22/04:00pm 27.5 NW 6 11 1011.5 - 0.0 - - - - - - -
22/03:30pm 27.4 NW 7 10 1011.5 - 0.0 - - - - - - -
22/03:00pm 28.5 WNW 6 10 1011.9 - 0.0 - - - - - - -
22/02:30pm 29.4 ENE 6 10 1012.3 - 0.0 - - - - - - -
22/02:00pm 29.7 ENE 7 13 1012.9 - 0.0 - - - - - - -
22/01:30pm 30.1 E 8 12 1013.5 - 0.0 - - - - - - -
22/01:00pm 29.5 E 7 12 1014.0 - 0.0 - - - - - - -
22/12:30pm 28.5 E 8 13 1014.6 - 0.0 - - - - - - -
22/12:00pm 28.1 E 8 11 1015.2 - 0.0 - - - - - - -
22/11:30am 27.7 E 9 13 1015.7 - 0.0 - - - - - - -
22/11:00am 26.9 E 8 13 1016.1 - 0.0 - - - - - - -
22/10:30am 26.0 E 8 12 1016.4 - 0.0 - - - - - - -
22/10:00am 25.2 E 8 13 1016.7 - 0.0 - - - - - - -
22/09:30am 24.0 ESE 8 15 1016.8 - 0.0 - - - - - - -
22/09:00am 22.8 ESE 6 13 1016.6 - 0.0 - - - - - - -
22/08:30am 21.2 ESE 8 14 1016.4 - 0.0 - - - - - - -
22/08:00am 20.3 ESE 6 11 1016.0 - 0.0 - - - - - - -
22/07:30am 18.3 ESE 5 8 1015.8 - 0.0 - - - - - - -
22/07:00am 17.3 SE 3 6 1015.4 - 0.0 - - - - - - -
22/06:30am 16.5 SE 3 6 1015.3 - 0.0 - - - - - - -
22/06:00am 17.3 SE 2 5 1015.0 - 0.0 - - - - - - -
22/05:30am 17.7 SE 3 5 1014.8 - 0.0 - - - - - - -
22/05:00am 17.8 SE 3 7 1014.5 - 0.0 - - - - - - -
22/04:30am 15.3 ENE 2 4 1014.3 - 0.0 - - - - - - -
22/04:00am 17.4 SSE 2 4 1014.2 - 0.0 - - - - - - -
22/03:30am 17.9 SSE 2 3 1014.3 - 0.0 - - - - - - -
22/03:00am 19.5 SSE 3 4 1014.4 - 0.0 - - - - - - -
22/02:30am 17.3 SSE 3 3 1014.5 - 0.0 - - - - - - -
22/02:00am 17.0 SSE 2 3 1014.6 - 0.0 - - - - - - -
22/01:30am 16.7 CALM 0 0 1014.9 - 0.0 - - - - - - -
22/01:00am 16.8 CALM 0 0 1014.8 - 0.0 - - - - - - -
22/12:30am 17.3 CALM 0 0 1015.0 - 0.0 - - - - - - -
22/12:00am 17.0 CALM 0 0 1015.1 - 0.0 - - - - - - -
 
Date/Time
CST
Temp

°C
Wind Pressure Rain
since 9am
mm
Weather Cloud Vis
km
Sea
Height
m
Swell
Dir
 
Speed
knots
Gust
knots
hPa Trend Height
m
Period
s
Dir
21/11:30pm 17.2 CALM 0 0 1015.1 - 0.0 - - - - - - -
21/11:00pm 17.8 CALM 0 0 1015.2 - 0.0 - - - - - - -
21/10:30pm 17.8 CALM 0 1 1015.2 - 0.0 - - - - - - -
21/10:00pm 17.6 CALM 0 0 1015.1 - 0.0 - - - - - - -
21/09:30pm 18.0 CALM 0 0 1014.7 - 0.0 - - - - - - -
21/09:00pm 18.6 CALM 0 0 1014.4 - 0.0 - - - - - - -
21/08:30pm 18.8 CALM 0 0 1014.0 - 0.0 - - - - - - -
21/08:00pm 19.6 CALM 0 0 1013.8 - 0.0 - - - - - - -
21/07:30pm 20.7 CALM 0 0 1013.4 - 0.0 - - - - - - -
21/07:00pm 22.6 NNW 2 2 1013.1 - 0.0 - - - - - - -
21/06:30pm 24.6 NW 3 6 1012.6 - 0.0 - - - - - - -
21/06:00pm 25.8 NNW 4 7 1012.4 - 0.0 - - - - - - -
21/05:30pm 26.5 NNW 6 9 1012.1 - 0.0 - - - - - - -
21/05:00pm 27.0 NNW 6 11 1011.7 - 0.0 - - - - - - -
21/04:30pm 26.8 N 7 11 1011.4 - 0.0 - - - - - - -
21/04:00pm 29.4 NE 6 11 1011.4 - 0.0 - - - - - - -
21/03:30pm 31.3 NE 7 12 1011.5 - 0.0 - - - - - - -
21/03:00pm 31.3 ENE 7 12 1011.7 - 0.0 - - - - - - -
21/02:30pm 30.8 E 8 13 1012.4 - 0.0 - - - - - - -
21/02:00pm 30.2 E 9 15 1012.9 - 0.0 - - - - - - -
21/01:30pm 29.9 ENE 10 15 1013.4 - 0.0 - - - - - - -
21/01:00pm 29.8 E 10 15 1013.9 - 0.0 - - - - - - -
21/12:30pm 29.3 E 10 15 1014.2 - 0.0 - - - - - - -
21/12:00pm 29.2 E 8 14 1014.7 - 0.0 - - - - - - -
21/11:30am 28.1 E 11 17 1014.8 - 0.0 - - - - - - -
21/11:00am 27.7 E 12 19 1015.2 - 0.0 - - - - - - -
21/10:30am 27.3 ESE 10 15 1015.4 - 0.0 - - - - - - -
21/10:00am 26.0 ESE 8 14 1015.4 - 0.0 - - - - - - -
21/09:30am 24.4 ESE 8 12 1015.5 - 0.0 - - - - - - -
21/09:00am 23.4 ESE 10 19 1015.2 - 0.0 - - - - - - -
21/08:30am 22.8 ESE 8 15 1014.8 - 0.0 - - - - - - -
21/08:00am 21.8 ESE 7 11 1014.5 - 0.0 - - - - - - -
21/07:30am 20.7 ESE 6 12 1014.1 - 0.0 - - - - - - -
21/07:00am 19.1 SE 3 7 1013.7 - 0.0 - - - - - - -
21/06:30am 18.9 SE 2 4 1013.4 - 0.0 - - - - - - -
21/06:00am 18.1 SSE 2 5 1013.1 - 0.0 - - - - - - -
21/05:30am 16.6 SSE 3 4 1012.8 - 0.0 - - - - - - -
21/05:00am 17.9 SE 2 3 1012.8 - 0.0 - - - - - - -
21/04:30am 18.2 ESE 2 3 1012.7 - 0.0 - - - - - - -
21/04:00am 17.8 SSE 3 3 1012.5 - 0.0 - - - - - - -
21/03:30am 17.8 SSE 2 2 1012.6 - 0.0 - - - - - - -
21/03:00am 18.1 S 2 3 1012.8 - 0.0 - - - - - - -

Other Formats:

Comma delimited format used in spreadsheet applications
http://www.bom.gov.au/fwo/IDD60701/IDD60701.94116.axf

JavaScript Object Notation format (JSON) in row-major order
http://www.bom.gov.au/fwo/IDD60701/IDD60701.94116.json